sensor_id;sensor_type;location;lat;lon;timestamp;P1;durP1;ratioP1;P2;durP2;ratioP2
19255;SDS011;9762;52.490;13.410;2023-05-23T00:01:37;4.43;;;4.03;;
19255;SDS011;9762;52.490;13.410;2023-05-23T00:04:03;3.60;;;3.40;;
19255;SDS011;9762;52.490;13.410;2023-05-23T00:06:29;4.13;;;3.80;;
19255;SDS011;9762;52.490;13.410;2023-05-23T00:08:55;4.97;;;3.80;;
19255;SDS011;9762;52.490;13.410;2023-05-23T00:11:21;6.53;;;4.10;;
19255;SDS011;9762;52.490;13.410;2023-05-23T00:13:50;4.00;;;3.70;;
19255;SDS011;9762;52.490;13.410;2023-05-23T00:16:17;5.33;;;3.90;;
19255;SDS011;9762;52.490;13.410;2023-05-23T00:18:42;6.30;;;4.27;;
19255;SDS011;9762;52.490;13.410;2023-05-23T00:21:09;4.10;;;3.80;;
19255;SDS011;9762;52.490;13.410;2023-05-23T00:23:37;4.33;;;4.03;;
19255;SDS011;9762;52.490;13.410;2023-05-23T00:26:06;9.00;;;4.07;;
19255;SDS011;9762;52.490;13.410;2023-05-23T00:28:32;6.20;;;3.70;;
19255;SDS011;9762;52.490;13.410;2023-05-23T00:30:57;5.63;;;3.87;;
19255;SDS011;9762;52.490;13.410;2023-05-23T00:33:23;4.23;;;3.90;;
19255;SDS011;9762;52.490;13.410;2023-05-23T00:35:49;6.43;;;4.20;;
19255;SDS011;9762;52.490;13.410;2023-05-23T00:38:15;5.73;;;3.93;;
19255;SDS011;9762;52.490;13.410;2023-05-23T00:40:41;5.13;;;3.97;;
19255;SDS011;9762;52.490;13.410;2023-05-23T00:43:06;5.23;;;4.73;;
19255;SDS011;9762;52.490;13.410;2023-05-23T00:45:32;6.40;;;4.50;;
19255;SDS011;9762;52.490;13.410;2023-05-23T00:47:58;4.40;;;4.10;;
19255;SDS011;9762;52.490;13.410;2023-05-23T00:50:24;4.53;;;3.60;;
19255;SDS011;9762;52.490;13.410;2023-05-23T00:52:53;4.27;;;3.87;;
19255;SDS011;9762;52.490;13.410;2023-05-23T00:55:20;4.73;;;4.10;;
19255;SDS011;9762;52.490;13.410;2023-05-23T00:57:47;5.90;;;3.77;;
19255;SDS011;9762;52.490;13.410;2023-05-23T01:00:12;6.13;;;4.20;;
19255;SDS011;9762;52.490;13.410;2023-05-23T01:02:41;4.73;;;4.17;;
19255;SDS011;9762;52.490;13.410;2023-05-23T01:05:15;4.23;;;3.97;;
19255;SDS011;9762;52.490;13.410;2023-05-23T01:07:46;6.30;;;4.50;;
19255;SDS011;9762;52.490;13.410;2023-05-23T01:10:13;6.90;;;4.43;;
19255;SDS011;9762;52.490;13.410;2023-05-23T01:15:39;4.60;;;4.30;;
19255;SDS011;9762;52.490;13.410;2023-05-23T01:19:15;5.47;;;4.40;;
19255;SDS011;9762;52.490;13.410;2023-05-23T01:21:16;5.07;;;4.47;;
19255;SDS011;9762;52.490;13.410;2023-05-23T01:26:39;4.67;;;3.97;;
19255;SDS011;9762;52.490;13.410;2023-05-23T01:31:46;4.67;;;4.23;;
19255;SDS011;9762;52.490;13.410;2023-05-23T01:34:16;4.63;;;4.07;;
19255;SDS011;9762;52.490;13.410;2023-05-23T01:36:43;3.77;;;3.47;;
19255;SDS011;9762;52.490;13.410;2023-05-23T01:39:09;4.77;;;4.37;;
19255;SDS011;9762;52.490;13.410;2023-05-23T01:41:35;5.27;;;3.93;;
19255;SDS011;9762;52.490;13.410;2023-05-23T01:44:01;3.67;;;3.40;;
19255;SDS011;9762;52.490;13.410;2023-05-23T01:46:28;4.37;;;3.97;;
19255;SDS011;9762;52.490;13.410;2023-05-23T01:48:54;12.53;;;3.77;;
19255;SDS011;9762;52.490;13.410;2023-05-23T01:51:21;6.80;;;4.83;;
19255;SDS011;9762;52.490;13.410;2023-05-23T01:53:49;4.23;;;3.93;;
19255;SDS011;9762;52.490;13.410;2023-05-23T01:56:15;4.63;;;4.13;;
19255;SDS011;9762;52.490;13.410;2023-05-23T01:58:41;4.20;;;3.80;;
19255;SDS011;9762;52.490;13.410;2023-05-23T02:01:07;4.83;;;3.60;;
19255;SDS011;9762;52.490;13.410;2023-05-23T02:03:34;4.63;;;3.93;;
19255;SDS011;9762;52.490;13.410;2023-05-23T02:05:59;4.40;;;4.00;;
19255;SDS011;9762;52.490;13.410;2023-05-23T02:08:25;7.00;;;4.93;;
19255;SDS011;9762;52.490;13.410;2023-05-23T02:10:51;10.07;;;4.57;;
19255;SDS011;9762;52.490;13.410;2023-05-23T02:13:16;6.80;;;4.50;;
19255;SDS011;9762;52.490;13.410;2023-05-23T02:15:42;12.10;;;4.50;;
19255;SDS011;9762;52.490;13.410;2023-05-23T02:18:08;4.40;;;4.13;;
19255;SDS011;9762;52.490;13.410;2023-05-23T02:20:33;6.93;;;4.23;;
19255;SDS011;9762;52.490;13.410;2023-05-23T02:22:59;5.90;;;4.50;;
19255;SDS011;9762;52.490;13.410;2023-05-23T02:25:25;6.60;;;3.83;;
19255;SDS011;9762;52.490;13.410;2023-05-23T02:27:50;7.73;;;4.20;;
19255;SDS011;9762;52.490;13.410;2023-05-23T02:30:16;6.37;;;3.83;;
19255;SDS011;9762;52.490;13.410;2023-05-23T02:32:41;4.30;;;4.00;;
19255;SDS011;9762;52.490;13.410;2023-05-23T02:35:07;7.20;;;4.40;;
19255;SDS011;9762;52.490;13.410;2023-05-23T02:37:34;4.57;;;4.17;;
19255;SDS011;9762;52.490;13.410;2023-05-23T02:40:00;8.33;;;4.53;;
19255;SDS011;9762;52.490;13.410;2023-05-23T02:42:26;9.77;;;4.50;;
19255;SDS011;9762;52.490;13.410;2023-05-23T02:44:51;4.37;;;4.07;;
19255;SDS011;9762;52.490;13.410;2023-05-23T02:47:17;4.30;;;3.93;;
19255;SDS011;9762;52.490;13.410;2023-05-23T02:49:43;5.03;;;4.20;;
19255;SDS011;9762;52.490;13.410;2023-05-23T02:52:08;4.63;;;4.20;;
19255;SDS011;9762;52.490;13.410;2023-05-23T02:54:34;5.07;;;4.00;;
19255;SDS011;9762;52.490;13.410;2023-05-23T02:56:59;6.60;;;4.10;;
19255;SDS011;9762;52.490;13.410;2023-05-23T02:59:25;5.43;;;4.40;;
19255;SDS011;9762;52.490;13.410;2023-05-23T03:01:51;6.90;;;4.33;;
19255;SDS011;9762;52.490;13.410;2023-05-23T03:04:16;7.03;;;4.60;;
19255;SDS011;9762;52.490;13.410;2023-05-23T03:06:42;8.37;;;4.73;;
19255;SDS011;9762;52.490;13.410;2023-05-23T03:09:09;5.77;;;4.50;;
19255;SDS011;9762;52.490;13.410;2023-05-23T03:11:35;4.80;;;4.23;;
19255;SDS011;9762;52.490;13.410;2023-05-23T03:14:01;6.37;;;4.40;;
19255;SDS011;9762;52.490;13.410;2023-05-23T03:16:26;6.90;;;4.87;;
19255;SDS011;9762;52.490;13.410;2023-05-23T03:18:52;11.53;;;5.07;;
19255;SDS011;9762;52.490;13.410;2023-05-23T03:21:18;5.20;;;4.80;;
19255;SDS011;9762;52.490;13.410;2023-05-23T03:23:43;6.00;;;4.30;;
19255;SDS011;9762;52.490;13.410;2023-05-23T03:26:09;5.03;;;4.53;;
19255;SDS011;9762;52.490;13.410;2023-05-23T03:28:35;8.53;;;4.50;;
19255;SDS011;9762;52.490;13.410;2023-05-23T03:31:01;8.57;;;4.57;;
19255;SDS011;9762;52.490;13.410;2023-05-23T03:33:26;7.73;;;4.60;;
19255;SDS011;9762;52.490;13.410;2023-05-23T03:35:52;6.70;;;4.53;;
19255;SDS011;9762;52.490;13.410;2023-05-23T03:38:18;5.63;;;5.17;;
19255;SDS011;9762;52.490;13.410;2023-05-23T03:40:43;4.80;;;4.40;;
19255;SDS011;9762;52.490;13.410;2023-05-23T03:43:09;7.00;;;4.63;;
19255;SDS011;9762;52.490;13.410;2023-05-23T03:45:35;5.87;;;4.50;;
19255;SDS011;9762;52.490;13.410;2023-05-23T03:48:00;4.67;;;4.33;;
19255;SDS011;9762;52.490;13.410;2023-05-23T03:50:26;6.90;;;5.30;;
19255;SDS011;9762;52.490;13.410;2023-05-23T03:52:52;5.50;;;5.00;;
19255;SDS011;9762;52.490;13.410;2023-05-23T03:55:19;8.97;;;5.57;;
19255;SDS011;9762;52.490;13.410;2023-05-23T03:57:50;7.47;;;4.70;;
19255;SDS011;9762;52.490;13.410;2023-05-23T04:00:16;11.93;;;5.50;;
19255;SDS011;9762;52.490;13.410;2023-05-23T04:02:43;5.60;;;4.73;;
19255;SDS011;9762;52.490;13.410;2023-05-23T04:05:10;6.03;;;4.33;;
19255;SDS011;9762;52.490;13.410;2023-05-23T04:07:36;7.47;;;4.77;;
19255;SDS011;9762;52.490;13.410;2023-05-23T04:10:02;6.23;;;4.93;;
19255;SDS011;9762;52.490;13.410;2023-05-23T04:12:28;6.73;;;4.70;;
19255;SDS011;9762;52.490;13.410;2023-05-23T04:14:57;6.87;;;4.50;;
19255;SDS011;9762;52.490;13.410;2023-05-23T04:17:23;5.33;;;4.83;;
19255;SDS011;9762;52.490;13.410;2023-05-23T04:19:49;4.73;;;4.37;;
19255;SDS011;9762;52.490;13.410;2023-05-23T04:22:15;4.93;;;4.53;;
19255;SDS011;9762;52.490;13.410;2023-05-23T04:24:41;4.83;;;4.47;;
19255;SDS011;9762;52.490;13.410;2023-05-23T04:27:06;7.57;;;4.47;;
19255;SDS011;9762;52.490;13.410;2023-05-23T04:29:33;6.17;;;4.80;;
19255;SDS011;9762;52.490;13.410;2023-05-23T04:32:00;4.50;;;4.30;;
19255;SDS011;9762;52.490;13.410;2023-05-23T04:34:30;6.97;;;5.23;;
19255;SDS011;9762;52.490;13.410;2023-05-23T04:36:57;11.67;;;5.10;;
19255;SDS011;9762;52.490;13.410;2023-05-23T04:39:27;6.90;;;4.50;;
19255;SDS011;9762;52.490;13.410;2023-05-23T04:41:56;5.37;;;4.87;;
19255;SDS011;9762;52.490;13.410;2023-05-23T04:44:22;6.33;;;5.13;;
19255;SDS011;9762;52.490;13.410;2023-05-23T04:46:48;6.03;;;4.93;;
19255;SDS011;9762;52.490;13.410;2023-05-23T04:49:14;7.47;;;4.87;;
19255;SDS011;9762;52.490;13.410;2023-05-23T04:51:40;6.27;;;5.30;;
19255;SDS011;9762;52.490;13.410;2023-05-23T04:54:07;7.50;;;4.70;;
19255;SDS011;9762;52.490;13.410;2023-05-23T04:56:33;7.60;;;5.47;;
19255;SDS011;9762;52.490;13.410;2023-05-23T04:58:58;8.57;;;5.10;;
19255;SDS011;9762;52.490;13.410;2023-05-23T05:01:24;11.03;;;5.00;;
19255;SDS011;9762;52.490;13.410;2023-05-23T05:03:50;7.87;;;4.97;;
19255;SDS011;9762;52.490;13.410;2023-05-23T05:06:16;7.67;;;5.20;;
19255;SDS011;9762;52.490;13.410;2023-05-23T05:08:43;9.77;;;4.27;;
19255;SDS011;9762;52.490;13.410;2023-05-23T05:11:09;6.57;;;5.10;;
19255;SDS011;9762;52.490;13.410;2023-05-23T05:13:35;12.07;;;5.13;;
19255;SDS011;9762;52.490;13.410;2023-05-23T05:16:00;6.97;;;4.87;;
19255;SDS011;9762;52.490;13.410;2023-05-23T05:18:26;6.93;;;4.77;;
19255;SDS011;9762;52.490;13.410;2023-05-23T05:20:53;10.47;;;5.17;;
19255;SDS011;9762;52.490;13.410;2023-05-23T05:23:18;12.60;;;5.50;;
19255;SDS011;9762;52.490;13.410;2023-05-23T05:25:44;9.60;;;5.40;;
19255;SDS011;9762;52.490;13.410;2023-05-23T05:28:10;6.27;;;4.70;;
19255;SDS011;9762;52.490;13.410;2023-05-23T05:30:36;5.70;;;5.20;;
19255;SDS011;9762;52.490;13.410;2023-05-23T05:33:02;6.70;;;4.93;;
19255;SDS011;9762;52.490;13.410;2023-05-23T05:35:30;10.77;;;5.50;;
19255;SDS011;9762;52.490;13.410;2023-05-23T05:37:56;5.67;;;5.17;;
19255;SDS011;9762;52.490;13.410;2023-05-23T05:40:22;6.00;;;5.60;;
19255;SDS011;9762;52.490;13.410;2023-05-23T05:42:48;9.70;;;6.03;;
19255;SDS011;9762;52.490;13.410;2023-05-23T05:45:13;9.10;;;4.60;;
19255;SDS011;9762;52.490;13.410;2023-05-23T05:47:39;32.67;;;26.33;;
19255;SDS011;9762;52.490;13.410;2023-05-23T05:50:05;16.47;;;12.83;;
19255;SDS011;9762;52.490;13.410;2023-05-23T05:52:33;10.20;;;8.87;;
19255;SDS011;9762;52.490;13.410;2023-05-23T05:55:06;6.90;;;6.20;;
19255;SDS011;9762;52.490;13.410;2023-05-23T05:57:35;24.23;;;19.90;;
19255;SDS011;9762;52.490;13.410;2023-05-23T06:00:03;8.90;;;7.70;;
19255;SDS011;9762;52.490;13.410;2023-05-23T06:02:39;10.03;;;7.67;;
19255;SDS011;9762;52.490;13.410;2023-05-23T06:05:08;15.77;;;7.20;;
19255;SDS011;9762;52.490;13.410;2023-05-23T06:07:36;6.40;;;5.77;;
19255;SDS011;9762;52.490;13.410;2023-05-23T06:10:05;36.00;;;26.03;;
19255;SDS011;9762;52.490;13.410;2023-05-23T06:12:31;9.20;;;7.50;;
19255;SDS011;9762;52.490;13.410;2023-05-23T06:14:57;21.37;;;14.70;;
19255;SDS011;9762;52.490;13.410;2023-05-23T06:17:23;14.97;;;12.60;;
19255;SDS011;9762;52.490;13.410;2023-05-23T06:19:48;9.80;;;5.57;;
19255;SDS011;9762;52.490;13.410;2023-05-23T06:22:14;8.23;;;5.37;;
19255;SDS011;9762;52.490;13.410;2023-05-23T06:24:40;8.00;;;5.60;;
19255;SDS011;9762;52.490;13.410;2023-05-23T06:27:05;9.60;;;5.33;;
19255;SDS011;9762;52.490;13.410;2023-05-23T06:29:31;11.93;;;5.87;;
19255;SDS011;9762;52.490;13.410;2023-05-23T06:31:56;7.07;;;5.20;;
19255;SDS011;9762;52.490;13.410;2023-05-23T06:34:22;7.60;;;5.30;;
19255;SDS011;9762;52.490;13.410;2023-05-23T06:36:47;5.63;;;5.13;;
19255;SDS011;9762;52.490;13.410;2023-05-23T06:39:13;14.40;;;6.00;;
19255;SDS011;9762;52.490;13.410;2023-05-23T06:41:39;5.57;;;5.13;;
19255;SDS011;9762;52.490;13.410;2023-05-23T06:44:05;12.47;;;4.93;;
19255;SDS011;9762;52.490;13.410;2023-05-23T06:46:31;11.37;;;5.43;;
19255;SDS011;9762;52.490;13.410;2023-05-23T06:48:56;6.17;;;4.73;;
19255;SDS011;9762;52.490;13.410;2023-05-23T06:51:22;7.83;;;5.23;;
19255;SDS011;9762;52.490;13.410;2023-05-23T06:53:48;6.93;;;5.37;;
19255;SDS011;9762;52.490;13.410;2023-05-23T06:56:13;5.70;;;5.10;;
19255;SDS011;9762;52.490;13.410;2023-05-23T06:58:39;17.07;;;5.67;;
19255;SDS011;9762;52.490;13.410;2023-05-23T07:01:05;8.93;;;5.23;;
19255;SDS011;9762;52.490;13.410;2023-05-23T07:03:30;10.07;;;5.57;;
19255;SDS011;9762;52.490;13.410;2023-05-23T07:05:57;14.37;;;5.47;;
19255;SDS011;9762;52.490;13.410;2023-05-23T07:08:22;14.63;;;5.57;;
19255;SDS011;9762;52.490;13.410;2023-05-23T07:10:49;13.80;;;5.57;;
19255;SDS011;9762;52.490;13.410;2023-05-23T07:13:15;6.10;;;5.50;;
19255;SDS011;9762;52.490;13.410;2023-05-23T07:15:40;19.87;;;13.80;;
19255;SDS011;9762;52.490;13.410;2023-05-23T07:18:06;12.10;;;7.23;;
19255;SDS011;9762;52.490;13.410;2023-05-23T07:20:32;9.50;;;6.57;;
19255;SDS011;9762;52.490;13.410;2023-05-23T07:22:58;7.40;;;5.90;;
19255;SDS011;9762;52.490;13.410;2023-05-23T07:25:24;6.93;;;5.03;;
19255;SDS011;9762;52.490;13.410;2023-05-23T07:27:50;8.73;;;5.27;;
19255;SDS011;9762;52.490;13.410;2023-05-23T07:30:18;8.77;;;5.43;;
19255;SDS011;9762;52.490;13.410;2023-05-23T07:32:45;11.83;;;5.10;;
19255;SDS011;9762;52.490;13.410;2023-05-23T07:35:12;7.00;;;4.90;;
19255;SDS011;9762;52.490;13.410;2023-05-23T07:37:37;13.97;;;6.03;;
19255;SDS011;9762;52.490;13.410;2023-05-23T07:40:03;12.83;;;5.37;;
19255;SDS011;9762;52.490;13.410;2023-05-23T07:42:30;7.73;;;5.13;;
19255;SDS011;9762;52.490;13.410;2023-05-23T07:44:55;8.90;;;6.07;;
19255;SDS011;9762;52.490;13.410;2023-05-23T07:47:21;7.17;;;5.00;;
19255;SDS011;9762;52.490;13.410;2023-05-23T07:49:48;15.13;;;6.20;;
19255;SDS011;9762;52.490;13.410;2023-05-23T07:52:15;11.60;;;5.50;;
19255;SDS011;9762;52.490;13.410;2023-05-23T07:54:41;8.53;;;5.93;;
19255;SDS011;9762;52.490;13.410;2023-05-23T07:57:07;10.83;;;5.37;;
19255;SDS011;9762;52.490;13.410;2023-05-23T07:59:33;6.53;;;5.23;;
19255;SDS011;9762;52.490;13.410;2023-05-23T08:02:00;6.40;;;4.73;;
19255;SDS011;9762;52.490;13.410;2023-05-23T08:04:25;10.80;;;4.90;;
19255;SDS011;9762;52.490;13.410;2023-05-23T08:06:52;9.97;;;5.40;;
19255;SDS011;9762;52.490;13.410;2023-05-23T08:09:17;6.07;;;5.13;;
19255;SDS011;9762;52.490;13.410;2023-05-23T08:11:43;6.17;;;5.17;;
19255;SDS011;9762;52.490;13.410;2023-05-23T08:14:09;9.23;;;6.30;;
19255;SDS011;9762;52.490;13.410;2023-05-23T08:16:34;5.30;;;4.80;;
19255;SDS011;9762;52.490;13.410;2023-05-23T08:19:01;6.60;;;4.83;;
19255;SDS011;9762;52.490;13.410;2023-05-23T08:21:27;5.93;;;5.03;;
19255;SDS011;9762;52.490;13.410;2023-05-23T08:23:52;5.60;;;5.00;;
19255;SDS011;9762;52.490;13.410;2023-05-23T08:26:18;5.70;;;5.20;;
19255;SDS011;9762;52.490;13.410;2023-05-23T08:28:44;21.30;;;6.33;;
19255;SDS011;9762;52.490;13.410;2023-05-23T08:31:10;10.67;;;4.93;;
19255;SDS011;9762;52.490;13.410;2023-05-23T08:33:36;7.57;;;5.40;;
19255;SDS011;9762;52.490;13.410;2023-05-23T08:36:02;6.00;;;4.63;;
19255;SDS011;9762;52.490;13.410;2023-05-23T08:38:27;6.20;;;4.60;;
19255;SDS011;9762;52.490;13.410;2023-05-23T08:40:53;5.83;;;5.20;;
19255;SDS011;9762;52.490;13.410;2023-05-23T08:43:21;5.73;;;4.60;;
19255;SDS011;9762;52.490;13.410;2023-05-23T08:45:47;5.30;;;4.77;;
19255;SDS011;9762;52.490;13.410;2023-05-23T08:48:15;5.17;;;4.80;;
19255;SDS011;9762;52.490;13.410;2023-05-23T08:50:45;4.73;;;4.43;;
19255;SDS011;9762;52.490;13.410;2023-05-23T08:53:14;10.07;;;5.23;;
19255;SDS011;9762;52.490;13.410;2023-05-23T08:55:45;9.33;;;5.50;;
19255;SDS011;9762;52.490;13.410;2023-05-23T08:58:15;5.20;;;4.77;;
19255;SDS011;9762;52.490;13.410;2023-05-23T09:00:46;7.70;;;5.33;;
19255;SDS011;9762;52.490;13.410;2023-05-23T09:03:14;6.70;;;5.37;;
19255;SDS011;9762;52.490;13.410;2023-05-23T09:05:40;10.70;;;5.00;;
19255;SDS011;9762;52.490;13.410;2023-05-23T09:08:06;8.03;;;5.20;;
19255;SDS011;9762;52.490;13.410;2023-05-23T09:10:32;11.90;;;5.30;;
19255;SDS011;9762;52.490;13.410;2023-05-23T09:12:58;9.90;;;5.20;;
19255;SDS011;9762;52.490;13.410;2023-05-23T09:15:23;5.77;;;5.27;;
19255;SDS011;9762;52.490;13.410;2023-05-23T09:17:50;6.07;;;4.80;;
19255;SDS011;9762;52.490;13.410;2023-05-23T09:20:16;8.93;;;5.23;;
19255;SDS011;9762;52.490;13.410;2023-05-23T09:22:48;11.77;;;5.37;;
19255;SDS011;9762;52.490;13.410;2023-05-23T09:25:14;7.83;;;5.10;;
19255;SDS011;9762;52.490;13.410;2023-05-23T09:27:40;8.77;;;5.05;;
19255;SDS011;9762;52.490;13.410;2023-05-23T09:30:07;10.35;;;5.25;;
19255;SDS011;9762;52.490;13.410;2023-05-23T09:32:35;5.75;;;5.25;;
19255;SDS011;9762;52.490;13.410;2023-05-23T09:35:05;5.95;;;5.43;;
19255;SDS011;9762;52.490;13.410;2023-05-23T09:37:33;5.20;;;4.80;;
19255;SDS011;9762;52.490;13.410;2023-05-23T09:40:11;9.55;;;5.13;;
19255;SDS011;9762;52.490;13.410;2023-05-23T09:42:42;5.68;;;5.28;;
19255;SDS011;9762;52.490;13.410;2023-05-23T09:45:09;5.97;;;5.05;;
19255;SDS011;9762;52.490;13.410;2023-05-23T09:47:35;6.20;;;5.22;;
19255;SDS011;9762;52.490;13.410;2023-05-23T09:50:01;5.70;;;5.20;;
19255;SDS011;9762;52.490;13.410;2023-05-23T09:52:32;5.72;;;5.20;;
19255;SDS011;9762;52.490;13.410;2023-05-23T09:55:03;5.68;;;5.18;;
19255;SDS011;9762;52.490;13.410;2023-05-23T09:57:30;6.28;;;5.68;;
19255;SDS011;9762;52.490;13.410;2023-05-23T10:00:08;6.60;;;5.70;;
19255;SDS011;9762;52.490;13.410;2023-05-23T10:08:01;6.18;;;5.53;;
19255;SDS011;9762;52.490;13.410;2023-05-23T10:10:32;9.32;;;6.28;;
19255;SDS011;9762;52.490;13.410;2023-05-23T10:13:01;6.63;;;5.88;;
19255;SDS011;9762;52.490;13.410;2023-05-23T10:15:34;6.22;;;5.65;;
19255;SDS011;9762;52.490;13.410;2023-05-23T10:18:11;7.45;;;6.75;;
19255;SDS011;9762;52.490;13.410;2023-05-23T10:20:46;6.95;;;6.35;;
19255;SDS011;9762;52.490;13.410;2023-05-23T10:23:15;8.02;;;7.22;;
19255;SDS011;9762;52.490;13.410;2023-05-23T10:25:43;9.00;;;6.28;;
19255;SDS011;9762;52.490;13.410;2023-05-23T10:28:09;9.80;;;6.93;;
19255;SDS011;9762;52.490;13.410;2023-05-23T10:30:36;10.75;;;7.28;;
19255;SDS011;9762;52.490;13.410;2023-05-23T10:33:02;10.98;;;7.28;;
19255;SDS011;9762;52.490;13.410;2023-05-23T10:38:25;8.77;;;7.87;;
19255;SDS011;9762;52.490;13.410;2023-05-23T10:41:17;8.30;;;7.60;;
19255;SDS011;9762;52.490;13.410;2023-05-23T10:44:01;10.90;;;7.93;;
19255;SDS011;9762;52.490;13.410;2023-05-23T10:46:51;9.73;;;8.60;;
19255;SDS011;9762;52.490;13.410;2023-05-23T10:52:20;9.07;;;8.27;;
19255;SDS011;9762;52.490;13.410;2023-05-23T10:54:52;9.30;;;8.45;;
19255;SDS011;9762;52.490;13.410;2023-05-23T10:57:19;9.48;;;8.77;;
19255;SDS011;9762;52.490;13.410;2023-05-23T10:59:54;9.90;;;8.98;;
19255;SDS011;9762;52.490;13.410;2023-05-23T11:02:27;9.55;;;8.20;;
19255;SDS011;9762;52.490;13.410;2023-05-23T11:07:46;10.18;;;9.27;;
19255;SDS011;9762;52.490;13.410;2023-05-23T11:10:30;10.88;;;9.77;;
19255;SDS011;9762;52.490;13.410;2023-05-23T11:12:55;14.63;;;10.30;;
19255;SDS011;9762;52.490;13.410;2023-05-23T11:15:40;12.77;;;11.40;;
19255;SDS011;9762;52.490;13.410;2023-05-23T11:18:06;15.40;;;10.93;;
19255;SDS011;9762;52.490;13.410;2023-05-23T11:20:32;12.67;;;10.47;;
19255;SDS011;9762;52.490;13.410;2023-05-23T11:23:02;12.40;;;11.27;;
19255;SDS011;9762;52.490;13.410;2023-05-23T11:25:44;16.37;;;12.43;;
19255;SDS011;9762;52.490;13.410;2023-05-23T11:28:17;13.63;;;12.33;;
19255;SDS011;9762;52.490;13.410;2023-05-23T11:30:45;12.70;;;11.60;;
19255;SDS011;9762;52.490;13.410;2023-05-23T11:33:13;13.23;;;11.97;;
19255;SDS011;9762;52.490;13.410;2023-05-23T11:35:40;14.43;;;13.13;;
19255;SDS011;9762;52.490;13.410;2023-05-23T11:38:07;12.90;;;11.70;;
19255;SDS011;9762;52.490;13.410;2023-05-23T11:43:04;14.07;;;12.63;;
19255;SDS011;9762;52.490;13.410;2023-05-23T11:45:31;15.33;;;13.73;;
19255;SDS011;9762;52.490;13.410;2023-05-23T11:48:03;15.57;;;13.97;;
19255;SDS011;9762;52.490;13.410;2023-05-23T11:50:46;18.77;;;14.10;;
19255;SDS011;9762;52.490;13.410;2023-05-23T11:53:16;16.17;;;14.47;;
19255;SDS011;9762;52.490;13.410;2023-05-23T11:55:48;15.50;;;14.00;;
19255;SDS011;9762;52.490;13.410;2023-05-23T11:58:14;17.70;;;15.93;;
19255;SDS011;9762;52.490;13.410;2023-05-23T12:00:44;15.67;;;14.20;;
19255;SDS011;9762;52.490;13.410;2023-05-23T12:03:10;18.27;;;14.47;;
19255;SDS011;9762;52.490;13.410;2023-05-23T12:05:36;16.60;;;15.00;;
19255;SDS011;9762;52.490;13.410;2023-05-23T12:08:01;16.07;;;14.67;;
19255;SDS011;9762;52.490;13.410;2023-05-23T12:10:27;18.63;;;15.57;;
19255;SDS011;9762;52.490;13.410;2023-05-23T12:12:53;18.13;;;14.10;;
19255;SDS011;9762;52.490;13.410;2023-05-23T12:15:23;19.97;;;14.10;;
19255;SDS011;9762;52.490;13.410;2023-05-23T12:17:52;14.87;;;13.43;;
19255;SDS011;9762;52.490;13.410;2023-05-23T12:20:18;14.17;;;12.53;;
19255;SDS011;9762;52.490;13.410;2023-05-23T12:22:45;13.70;;;12.30;;
19255;SDS011;9762;52.490;13.410;2023-05-23T12:25:10;14.50;;;13.20;;
19255;SDS011;9762;52.490;13.410;2023-05-23T12:27:38;15.27;;;13.77;;
19255;SDS011;9762;52.490;13.410;2023-05-23T12:30:14;15.53;;;14.03;;
19255;SDS011;9762;52.490;13.410;2023-05-23T12:32:41;17.07;;;15.30;;
19255;SDS011;9762;52.490;13.410;2023-05-23T12:35:09;15.77;;;13.80;;
19255;SDS011;9762;52.490;13.410;2023-05-23T12:37:40;15.30;;;13.97;;
19255;SDS011;9762;52.490;13.410;2023-05-23T12:45:14;16.33;;;13.73;;
19255;SDS011;9762;52.490;13.410;2023-05-23T12:47:40;15.70;;;14.13;;
19255;SDS011;9762;52.490;13.410;2023-05-23T12:50:05;16.00;;;14.40;;
19255;SDS011;9762;52.490;13.410;2023-05-23T12:52:31;15.80;;;14.00;;
19255;SDS011;9762;52.490;13.410;2023-05-23T12:54:57;14.37;;;13.07;;
19255;SDS011;9762;52.490;13.410;2023-05-23T12:57:22;12.50;;;11.40;;
19255;SDS011;9762;52.490;13.410;2023-05-23T12:59:48;11.90;;;10.97;;
19255;SDS011;9762;52.490;13.410;2023-05-23T13:02:14;13.77;;;12.40;;
19255;SDS011;9762;52.490;13.410;2023-05-23T13:04:39;12.63;;;11.57;;
19255;SDS011;9762;52.490;13.410;2023-05-23T13:07:05;12.77;;;11.40;;
19255;SDS011;9762;52.490;13.410;2023-05-23T13:09:30;12.67;;;11.37;;
19255;SDS011;9762;52.490;13.410;2023-05-23T13:11:56;11.90;;;10.70;;
19255;SDS011;9762;52.490;13.410;2023-05-23T13:14:22;11.57;;;10.37;;
19255;SDS011;9762;52.490;13.410;2023-05-23T13:16:48;13.13;;;11.80;;
19255;SDS011;9762;52.490;13.410;2023-05-23T13:19:13;14.00;;;12.73;;
19255;SDS011;9762;52.490;13.410;2023-05-23T13:21:39;13.83;;;12.27;;
19255;SDS011;9762;52.490;13.410;2023-05-23T13:24:05;15.90;;;13.20;;
19255;SDS011;9762;52.490;13.410;2023-05-23T13:26:32;14.87;;;13.37;;
19255;SDS011;9762;52.490;13.410;2023-05-23T13:28:58;13.87;;;12.57;;
19255;SDS011;9762;52.490;13.410;2023-05-23T13:31:24;15.50;;;13.93;;
19255;SDS011;9762;52.490;13.410;2023-05-23T13:33:51;16.67;;;14.77;;
19255;SDS011;9762;52.490;13.410;2023-05-23T13:36:16;15.37;;;13.97;;
19255;SDS011;9762;52.490;13.410;2023-05-23T13:38:42;19.03;;;14.63;;
19255;SDS011;9762;52.490;13.410;2023-05-23T13:41:08;15.40;;;13.77;;
19255;SDS011;9762;52.490;13.410;2023-05-23T13:43:33;16.47;;;14.87;;
19255;SDS011;9762;52.490;13.410;2023-05-23T13:46:00;16.07;;;14.13;;
19255;SDS011;9762;52.490;13.410;2023-05-23T13:48:26;17.07;;;15.40;;
19255;SDS011;9762;52.490;13.410;2023-05-23T13:50:52;16.73;;;14.90;;
19255;SDS011;9762;52.490;13.410;2023-05-23T13:53:19;16.07;;;14.57;;
19255;SDS011;9762;52.490;13.410;2023-05-23T13:55:45;16.77;;;14.63;;
19255;SDS011;9762;52.490;13.410;2023-05-23T13:58:11;15.67;;;14.07;;
19255;SDS011;9762;52.490;13.410;2023-05-23T14:00:37;16.83;;;14.33;;
19255;SDS011;9762;52.490;13.410;2023-05-23T14:03:03;17.30;;;13.77;;
19255;SDS011;9762;52.490;13.410;2023-05-23T14:05:28;15.47;;;13.90;;
19255;SDS011;9762;52.490;13.410;2023-05-23T14:07:54;23.17;;;18.57;;
19255;SDS011;9762;52.490;13.410;2023-05-23T14:10:20;18.23;;;14.80;;
19255;SDS011;9762;52.490;13.410;2023-05-23T14:12:46;16.80;;;13.30;;
19255;SDS011;9762;52.490;13.410;2023-05-23T14:15:11;15.63;;;14.03;;
19255;SDS011;9762;52.490;13.410;2023-05-23T14:17:37;16.40;;;14.73;;
19255;SDS011;9762;52.490;13.410;2023-05-23T14:20:03;15.80;;;13.13;;
19255;SDS011;9762;52.490;13.410;2023-05-23T14:22:29;16.87;;;15.13;;
19255;SDS011;9762;52.490;13.410;2023-05-23T14:24:56;16.10;;;14.40;;
19255;SDS011;9762;52.490;13.410;2023-05-23T14:27:22;18.97;;;15.57;;
19255;SDS011;9762;52.490;13.410;2023-05-23T14:29:47;18.23;;;14.47;;
19255;SDS011;9762;52.490;13.410;2023-05-23T14:32:13;17.50;;;14.70;;
19255;SDS011;9762;52.490;13.410;2023-05-23T14:34:39;18.10;;;14.30;;
19255;SDS011;9762;52.490;13.410;2023-05-23T14:37:05;23.07;;;20.73;;
19255;SDS011;9762;52.490;13.410;2023-05-23T14:39:31;21.73;;;16.43;;
19255;SDS011;9762;52.490;13.410;2023-05-23T14:41:56;16.20;;;13.93;;
19255;SDS011;9762;52.490;13.410;2023-05-23T14:44:22;16.47;;;14.77;;
19255;SDS011;9762;52.490;13.410;2023-05-23T14:46:48;16.43;;;14.63;;
19255;SDS011;9762;52.490;13.410;2023-05-23T14:49:15;15.50;;;13.27;;
19255;SDS011;9762;52.490;13.410;2023-05-23T14:51:41;15.83;;;14.23;;
19255;SDS011;9762;52.490;13.410;2023-05-23T14:54:07;17.17;;;14.03;;
19255;SDS011;9762;52.490;13.410;2023-05-23T14:56:33;15.50;;;12.67;;
19255;SDS011;9762;52.490;13.410;2023-05-23T14:59:00;16.57;;;14.07;;
19255;SDS011;9762;52.490;13.410;2023-05-23T15:01:26;18.97;;;13.03;;
19255;SDS011;9762;52.490;13.410;2023-05-23T15:03:52;14.17;;;12.70;;
19255;SDS011;9762;52.490;13.410;2023-05-23T15:06:17;16.63;;;12.00;;
19255;SDS011;9762;52.490;13.410;2023-05-23T15:08:43;12.93;;;11.63;;